Time;durP1;ratioP1;P1;durP2;ratioP2;P2;SDS_P1;SDS_P2;PMS_P1;PMS_P2;Temp;Humidity;BMP_temperature;BMP_pressure;BME280_temperature;BME280_humidity;BME280_pressure;Samples;Min_cycle;Max_cycle;Signal;HPM_P1;HPM_P2
2021/12/18 00:00:18;;;;;;;1.13;0.80;;;21.30;55.60;;;;;;5119709;27;20131;-73
2021/12/18 00:02:44;;;;;;;0.95;0.80;;;21.40;55.70;;;;;;5085398;28;20040;-73
2021/12/18 00:05:09;;;;;;;1.52;0.68;;;21.30;55.60;;;;;;5085533;28;20048;-74
2021/12/18 00:07:35;;;;;;;1.95;0.70;;;21.30;55.60;;;;;;5098664;28;20136;-72
2021/12/18 00:10:04;;;;;;;0.82;0.55;;;21.30;55.50;;;;;;5132098;27;20157;-73
2021/12/18 00:12:29;;;;;;;;;;;21.30;55.50;;;;;;5092028;28;20055;-74
2021/12/18 00:14:55;;;;;;;0.68;0.57;;;21.30;55.50;;;;;;5117174;27;20768;-74
2021/12/18 00:17:20;;;;;;;1.20;0.80;;;21.30;55.50;;;;;;5086324;28;20130;-73
2021/12/18 00:19:46;;;;;;;0.98;0.50;;;21.30;55.50;;;;;;5091359;28;20050;-73
2021/12/18 00:22:12;;;;;;;1.30;0.80;;;21.30;55.50;;;;;;5097210;28;20122;-73
2021/12/18 00:24:39;;;;;;;1.33;0.70;;;21.30;55.50;;;;;;5117629;27;20158;-74
2021/12/18 00:27:05;;;;;;;0.82;0.68;;;21.30;55.50;;;;;;5086475;28;20425;-73
2021/12/18 00:29:30;;;;;;;0.90;0.60;;;21.30;55.40;;;;;;5086002;28;20043;-74
2021/12/18 00:31:57;;;;;;;0.82;0.52;;;21.30;55.50;;;;;;5084583;28;20051;-73
2021/12/18 00:34:22;;;;;;;2.90;0.60;;;21.30;55.40;;;;;;5087725;28;20056;-72
2021/12/18 00:36:48;;;;;;;0.82;0.50;;;21.30;55.40;;;;;;5103208;28;20059;-73
2021/12/18 00:39:14;;;;;;;1.25;0.52;;;21.30;55.40;;;;;;5103029;28;20039;-73
2021/12/18 00:44:08;;;;;;;1.00;0.70;;;21.30;55.30;;;;;;5098180;28;20139;-79
2021/12/18 00:46:36;;;;;;;3.03;0.40;;;21.30;55.30;;;;;;5086753;28;20126;-73
2021/12/18 00:49:04;;;;;;;0.52;0.45;;;21.30;55.30;;;;;;5085512;28;20082;-76
2021/12/18 00:51:30;;;;;;;0.47;0.45;;;21.30;55.30;;;;;;5094855;28;20051;-76
2021/12/18 00:53:56;;;;;;;0.60;0.50;;;21.30;55.30;;;;;;5099519;28;20060;-76
2021/12/18 00:56:22;;;;;;;1.30;0.50;;;21.30;55.30;;;;;;5104584;28;20047;-77
2021/12/18 00:58:50;;;;;;;0.60;0.38;;;21.30;55.20;;;;;;5102172;28;20062;-77
2021/12/18 01:01:16;;;;;;;0.68;0.40;;;21.30;55.10;;;;;;5102936;28;20051;-76
2021/12/18 01:03:43;;;;;;;0.50;0.50;;;21.30;55.00;;;;;;5087797;28;20108;-77
2021/12/18 01:06:09;;;;;;;1.48;0.68;;;21.30;55.00;;;;;;5096454;28;20043;-78
2021/12/18 01:08:35;;;;;;;1.05;0.60;;;21.30;55.00;;;;;;5092020;28;20505;-77
2021/12/18 01:11:31;;;;;;;0.85;0.60;;;21.30;54.90;;;;;;5084899;28;20527;-78
2021/12/18 01:22:43;;;;;;;0.73;0.57;;;21.40;54.90;;;;;;5104365;28;20056;-77
2021/12/18 01:22:48;;;;;;;0.57;0.40;;;21.40;54.80;;;;;;5088824;28;20056;-77
2021/12/18 01:25:16;;;;;;;1.05;0.65;;;21.40;54.80;;;;;;5091233;28;20039;-78
2021/12/18 01:27:42;;;;;;;1.52;0.68;;;21.30;54.70;;;;;;5100804;28;20043;-78
2021/12/18 01:30:10;;;;;;;1.10;0.60;;;21.40;54.70;;;;;;5094949;28;20102;-78
2021/12/18 01:32:36;;;;;;;0.80;0.60;;;21.40;54.70;;;;;;5103189;28;20055;-79
2021/12/18 01:35:02;;;;;;;1.23;0.50;;;21.40;54.80;;;;;;5123661;27;20051;-77
2021/12/18 01:37:27;;;;;;;0.52;0.50;;;21.40;54.80;;;;;;5095442;28;20564;-72
2021/12/18 01:39:54;;;;;;;0.60;0.45;;;21.40;54.80;;;;;;5102082;28;20096;-77
2021/12/18 01:52:58;;;;;;;0.70;0.40;;;21.30;54.60;;;;;;5130612;27;20047;-75
2021/12/18 01:55:30;;;;;;;2.22;0.50;;;21.30;54.60;;;;;;5104138;28;20040;-79
2021/12/18 01:57:56;;;;;;;0.50;0.50;;;21.30;54.60;;;;;;5087347;28;20441;-78
2021/12/18 02:00:29;;;;;;;0.73;0.40;;;21.30;54.80;;;;;;5069764;28;20040;-78
2021/12/18 02:02:54;;;;;;;0.70;0.40;;;21.30;54.60;;;;;;5097939;28;20043;-76
2021/12/18 02:05:20;;;;;;;2.28;0.50;;;21.30;54.60;;;;;;5125005;27;20493;-77
2021/12/18 02:07:45;;;;;;;0.98;0.68;;;21.30;54.60;;;;;;5108043;27;20380;-78
2021/12/18 02:10:20;;;;;;;0.40;0.40;;;21.30;54.50;;;;;;5087493;28;20077;-78
2021/12/18 02:13:22;;;;;;;0.75;0.45;;;21.30;54.60;;;;;;5093622;28;20044;-78
2021/12/18 02:21:06;;;;;;;0.40;0.40;;;21.30;54.50;;;;;;5086794;28;20047;-75
2021/12/18 02:23:36;;;;;;;0.30;0.30;;;21.30;54.40;;;;;;5096341;28;20494;-75
2021/12/18 02:26:02;;;;;;;0.50;0.35;;;21.30;54.40;;;;;;5089010;28;20763;-74
2021/12/18 02:28:28;;;;;;;0.55;0.40;;;21.30;54.40;;;;;;5090992;28;20140;-75
2021/12/18 02:30:55;;;;;;;0.70;0.43;;;21.30;54.40;;;;;;5086763;28;20078;-75
2021/12/18 02:33:22;;;;;;;0.40;0.40;;;21.30;54.40;;;;;;5085834;28;20032;-75
2021/12/18 02:35:53;;;;;;;1.17;0.50;;;21.30;55.10;;;;;;5089515;28;20043;-74
2021/12/18 02:38:57;;;;;;;0.45;0.40;;;21.30;54.30;;;;;;5101743;28;20048;-73
2021/12/18 02:41:36;;;;;;;0.60;0.40;;;21.30;54.30;;;;;;5086954;28;20183;-74
2021/12/18 02:44:06;;;;;;;0.45;0.35;;;21.30;55.10;;;;;;5123163;27;20043;-74
2021/12/18 02:46:31;;;;;;;0.30;0.30;;;21.30;54.30;;;;;;5105192;28;20136;-74
2021/12/18 02:49:03;;;;;;;0.50;0.40;;;21.30;54.30;;;;;;5109019;28;20138;-75
2021/12/18 02:51:29;;;;;;;0.95;0.30;;;21.30;54.20;;;;;;5101495;28;20445;-75
2021/12/18 02:53:55;;;;;;;0.50;0.50;;;21.30;54.30;;;;;;5119954;27;20090;-75
2021/12/18 02:56:23;;;;;;;0.40;0.40;;;21.20;54.20;;;;;;5088466;28;20122;-73
2021/12/18 02:58:50;;;;;;;;;;;21.30;54.30;;;;;;5086656;28;20131;-74
2021/12/18 03:01:19;;;;;;;0.57;0.40;;;21.30;54.20;;;;;;5086434;28;19928;-75
2021/12/18 03:03:46;;;;;;;0.57;0.30;;;21.20;54.20;;;;;;5092826;28;20052;-75
2021/12/18 03:09:33;;;;;;;0.75;0.30;;;21.30;54.30;;;;;;5106128;28;20448;-75
2021/12/18 03:20:44;;;;;;;0.38;0.30;;;21.20;54.20;;;;;;5091347;28;20137;-75
2021/12/18 03:23:00;;;;;;;0.47;0.30;;;21.20;54.10;;;;;;5101740;28;20468;-74
2021/12/18 03:25:31;;;;;;;0.50;0.40;;;21.20;54.10;;;;;;5084932;28;20080;-73
2021/12/18 03:28:02;;;;;;;0.50;0.30;;;21.20;54.10;;;;;;5104177;28;20055;-74
2021/12/18 03:30:28;;;;;;;0.30;0.22;;;21.20;54.10;;;;;;5087009;28;20052;-73
2021/12/18 03:32:54;;;;;;;0.30;0.30;;;21.20;54.10;;;;;;5090515;28;20044;-73
2021/12/18 03:35:20;;;;;;;0.40;0.30;;;21.20;54.10;;;;;;5102813;28;20051;-74
2021/12/18 03:37:46;;;;;;;0.50;0.40;;;21.20;54.00;;;;;;5093045;28;20043;-73
2021/12/18 03:40:16;;;;;;;0.30;0.20;;;21.20;54.00;;;;;;5101753;28;20048;-74
2021/12/18 03:42:41;;;;;;;0.38;0.30;;;21.20;54.00;;;;;;5094864;28;20479;-73
2021/12/18 03:45:08;;;;;;;0.57;0.35;;;21.20;54.00;;;;;;5090981;28;20092;-73
2021/12/18 03:47:34;;;;;;;0.40;0.30;;;21.20;54.00;;;;;;5084380;28;20052;-74
2021/12/18 03:50:00;;;;;;;0.30;0.30;;;21.20;54.00;;;;;;5091502;28;20131;-73
2021/12/18 03:52:26;;;;;;;0.50;0.40;;;21.20;54.00;;;;;;5102671;28;20048;-72
2021/12/18 03:54:51;;;;;;;0.30;0.30;;;21.20;54.00;;;;;;5097107;28;20096;-73
2021/12/18 03:57:17;;;;;;;0.20;0.20;;;21.20;54.00;;;;;;5107254;28;20070;-73
2021/12/18 03:59:44;;;;;;;0.38;0.30;;;21.20;54.00;;;;;;5104244;28;20493;-71
2021/12/18 04:02:09;;;;;;;0.40;0.30;;;21.20;54.00;;;;;;5106793;28;20073;-74
2021/12/18 04:04:35;;;;;;;0.30;0.30;;;21.20;53.90;;;;;;5094264;28;20449;-74
2021/12/18 04:07:01;;;;;;;0.52;0.45;;;21.20;53.90;;;;;;5112773;27;20054;-73
2021/12/18 04:09:29;;;;;;;0.40;0.30;;;21.20;53.90;;;;;;5086756;28;20395;-74
2021/12/18 04:11:54;;;;;;;0.50;0.30;;;21.20;53.90;;;;;;5104995;28;20056;-74
2021/12/18 04:14:20;;;;;;;0.47;0.32;;;21.20;53.90;;;;;;5126351;27;20028;-72
2021/12/18 04:16:46;;;;;;;0.30;0.30;;;21.20;53.90;;;;;;5085403;28;20048;-72
2021/12/18 04:19:11;;;;;;;0.52;0.25;;;21.20;53.90;;;;;;5086142;28;20028;-71
2021/12/18 04:21:37;;;;;;;0.20;0.20;;;21.20;53.90;;;;;;5104471;28;20050;-74
2021/12/18 04:24:04;;;;;;;0.57;0.30;;;21.20;53.80;;;;;;5103023;28;20406;-74
2021/12/18 04:26:31;;;;;;;0.82;0.30;;;21.10;53.80;;;;;;5092465;28;20075;-73
2021/12/18 04:28:57;;;;;;;0.57;0.30;;;21.10;53.80;;;;;;5090475;28;20043;-72
2021/12/18 04:31:22;;;;;;;0.40;0.28;;;21.20;53.80;;;;;;5086090;28;20126;-71
2021/12/18 04:33:48;;;;;;;0.20;0.20;;;21.20;53.80;;;;;;5085906;28;20044;-72
2021/12/18 04:36:13;;;;;;;0.40;0.40;;;21.10;54.50;;;;;;5086534;28;20445;-71
2021/12/18 04:38:39;;;;;;;0.52;0.30;;;21.20;53.80;;;;;;5120073;27;20058;-72
2021/12/18 04:41:05;;;;;;;0.52;0.30;;;21.20;53.80;;;;;;5104981;28;20039;-71
2021/12/18 04:43:32;;;;;;;0.30;0.25;;;21.10;53.70;;;;;;5101363;28;20548;-71
2021/12/18 04:45:57;;;;;;;0.22;0.22;;;21.20;53.80;;;;;;5098132;28;20036;-74
2021/12/18 04:48:23;;;;;;;0.20;0.20;;;21.10;53.80;;;;;;5119146;27;20043;-74
2021/12/18 04:50:49;;;;;;;0.20;0.20;;;21.10;53.80;;;;;;5085721;28;20044;-74
2021/12/18 04:53:14;;;;;;;0.28;0.25;;;21.10;53.70;;;;;;5099639;28;20046;-73
2021/12/18 04:55:40;;;;;;;0.22;0.20;;;21.20;53.80;;;;;;5103572;28;20074;-72
2021/12/18 04:58:06;;;;;;;0.20;0.20;;;21.20;53.70;;;;;;5103865;28;20036;-73
2021/12/18 05:00:46;;;;;;;0.20;0.20;;;21.10;53.60;;;;;;5102783;28;20039;-74
2021/12/18 05:03:13;;;;;;;0.50;0.30;;;21.20;53.70;;;;;;5090212;28;20048;-74
2021/12/18 05:05:39;;;;;;;0.30;0.20;;;21.10;53.60;;;;;;5100497;28;20048;-73
2021/12/18 05:08:07;;;;;;;0.20;0.20;;;21.10;53.60;;;;;;5084265;28;20641;-72
2021/12/18 05:10:33;;;;;;;1.10;0.20;;;21.10;53.70;;;;;;5084995;28;20101;-75
2021/12/18 05:12:59;;;;;;;0.22;0.22;;;21.10;53.70;;;;;;5097333;28;20035;-74
2021/12/18 05:15:25;;;;;;;0.20;0.20;;;21.10;53.60;;;;;;5083329;28;20134;-72
2021/12/18 05:17:53;;;;;;;0.20;0.20;;;21.10;53.70;;;;;;5086320;28;20074;-74
2021/12/18 05:20:19;;;;;;;0.47;0.20;;;21.10;53.60;;;;;;5098205;28;20051;-71
2021/12/18 05:22:44;;;;;;;0.20;0.20;;;21.10;53.60;;;;;;5088132;28;20043;-74
2021/12/18 05:25:10;;;;;;;0.28;0.28;;;21.10;53.60;;;;;;5098226;28;20285;-74
2021/12/18 05:27:36;;;;;;;0.20;0.20;;;21.10;53.70;;;;;;5105669;28;20376;-73
2021/12/18 05:30:07;;;;;;;0.30;0.30;;;21.10;53.60;;;;;;5093524;28;20406;-74
2021/12/18 05:32:42;;;;;;;0.20;0.20;;;21.10;53.60;;;;;;5085271;28;20052;-73
2021/12/18 05:35:08;;;;;;;0.60;0.30;;;21.10;53.60;;;;;;5086113;28;20408;-73
2021/12/18 05:37:51;;;;;;;0.35;0.20;;;21.10;53.60;;;;;;5084581;28;20036;-72
2021/12/18 05:40:22;;;;;;;0.20;0.20;;;21.10;53.60;;;;;;5100269;28;20081;-70
2021/12/18 05:42:50;;;;;;;0.25;0.20;;;21.10;53.50;;;;;;5104208;28;20047;-74
2021/12/18 05:45:16;;;;;;;0.20;0.20;;;21.10;53.60;;;;;;5088759;28;20070;-75
2021/12/18 05:47:43;;;;;;;0.20;0.20;;;21.10;53.60;;;;;;5091462;28;20566;-74
2021/12/18 05:50:11;;;;;;;0.30;0.20;;;21.10;53.60;;;;;;5096240;28;20040;-75
2021/12/18 05:52:37;;;;;;;0.20;0.20;;;21.10;53.60;;;;;;5084379;28;20037;-74
2021/12/18 05:55:03;;;;;;;0.40;0.30;;;21.10;53.60;;;;;;5094584;28;20062;-74
2021/12/18 05:57:28;;;;;;;0.35;0.28;;;21.10;53.60;;;;;;5086417;28;20082;-74
2021/12/18 05:59:54;;;;;;;0.30;0.30;;;21.10;53.50;;;;;;5092664;28;20079;-73
2021/12/18 06:02:19;;;;;;;0.30;0.20;;;21.10;53.60;;;;;;5087118;28;20131;-72
2021/12/18 06:04:45;;;;;;;0.30;0.20;;;21.10;53.50;;;;;;5096525;28;20048;-74
2021/12/18 06:07:27;;;;;;;0.20;0.20;;;21.10;53.50;;;;;;5108018;28;20046;-74
2021/12/18 06:09:53;;;;;;;0.20;0.20;;;21.10;53.60;;;;;;5097103;28;20056;-74
2021/12/18 06:12:18;;;;;;;0.20;0.20;;;21.10;53.50;;;;;;5089152;28;20054;-74
2021/12/18 06:14:44;;;;;;;0.20;0.20;;;21.10;53.50;;;;;;5102913;28;20507;-74
2021/12/18 06:17:10;;;;;;;0.35;0.20;;;21.10;53.60;;;;;;5090379;28;20536;-75
2021/12/18 06:19:35;;;;;;;0.20;0.20;;;21.10;53.50;;;;;;5100196;28;20048;-74
2021/12/18 06:22:01;;;;;;;0.32;0.20;;;21.10;53.50;;;;;;5103208;27;20074;-74
2021/12/18 06:24:28;;;;;;;0.20;0.20;;;21.10;53.50;;;;;;5086921;28;20051;-72
2021/12/18 06:26:54;;;;;;;0.22;0.20;;;21.10;53.50;;;;;;5086092;28;20064;-73
2021/12/18 06:29:20;;;;;;;0.15;0.13;;;21.10;54.30;;;;;;5087968;28;20055;-74
2021/12/18 06:31:45;;;;;;;0.20;0.20;;;21.10;53.50;;;;;;5102237;27;20048;-74
2021/12/18 06:34:12;;;;;;;0.20;0.20;;;21.10;53.50;;;;;;5095960;28;20123;-74
2021/12/18 06:36:38;;;;;;;0.30;0.30;;;21.10;53.50;;;;;;5069728;28;20043;-73
2021/12/18 06:39:04;;;;;;;0.30;0.30;;;21.10;53.50;;;;;;5093814;28;20035;-73
2021/12/18 06:41:29;;;;;;;0.20;0.20;;;21.10;53.50;;;;;;5087469;28;20082;-73
2021/12/18 06:43:55;;;;;;;0.20;0.17;;;21.10;53.50;;;;;;5092503;28;20040;-73
2021/12/18 06:46:20;;;;;;;0.25;0.20;;;21.10;53.50;;;;;;5141758;27;20039;-73
2021/12/18 06:48:46;;;;;;;0.32;0.30;;;21.10;53.40;;;;;;5100900;28;20053;-73
2021/12/18 06:51:12;;;;;;;0.20;0.20;;;21.10;53.40;;;;;;5104332;27;20130;-73
2021/12/18 06:53:37;;;;;;;0.20;0.20;;;21.10;53.50;;;;;;5121120;27;20399;-74
2021/12/18 06:56:04;;;;;;;0.57;0.30;;;21.10;53.50;;;;;;5089484;28;20061;-72
2021/12/18 06:58:29;;;;;;;0.32;0.30;;;21.10;53.40;;;;;;5106391;28;20064;-72
2021/12/18 07:00:55;;;;;;;0.40;0.30;;;21.10;54.20;;;;;;5133887;27;20561;-74
2021/12/18 07:03:21;;;;;;;1.15;0.30;;;21.10;53.40;;;;;;5101091;28;20131;-72
2021/12/18 07:05:48;;;;;;;1.83;0.40;;;21.10;53.40;;;;;;5094557;28;20445;-72
2021/12/18 07:08:14;;;;;;;0.28;0.28;;;21.10;53.40;;;;;;5089405;28;20043;-74
2021/12/18 07:10:40;;;;;;;1.30;0.40;;;21.10;53.50;;;;;;5086850;28;20523;-73
2021/12/18 07:13:05;;;;;;;0.20;0.20;;;21.10;53.40;;;;;;5091062;28;20448;-74
2021/12/18 07:15:32;;;;;;;0.30;0.20;;;21.10;53.40;;;;;;5088343;28;20514;-74
2021/12/18 07:17:57;;;;;;;0.20;0.20;;;21.10;53.40;;;;;;5101532;28;20039;-74
2021/12/18 07:20:23;;;;;;;0.20;0.20;;;21.10;53.40;;;;;;5138814;27;20043;-74
2021/12/18 07:22:49;;;;;;;0.38;0.30;;;21.10;53.40;;;;;;5093351;27;20044;-74
2021/12/18 07:25:14;;;;;;;0.85;0.30;;;21.10;53.40;;;;;;5099266;28;20044;-69
2021/12/18 07:27:40;;;;;;;0.40;0.20;;;21.10;53.40;;;;;;5102148;28;20550;-73
2021/12/18 07:30:07;;;;;;;0.68;0.30;;;21.10;53.40;;;;;;5075751;28;20464;-77
2021/12/18 07:32:33;;;;;;;0.93;0.20;;;21.10;53.50;;;;;;5101496;28;20058;-74
2021/12/18 07:34:59;;;;;;;1.30;0.30;;;21.20;53.60;;;;;;5095466;28;20070;-77
2021/12/18 07:37:25;;;;;;;2.53;0.32;;;21.10;53.50;;;;;;5135168;27;20048;-77
2021/12/18 07:39:52;;;;;;;0.50;0.30;;;21.10;53.60;;;;;;5102913;28;20074;-77
2021/12/18 07:42:18;;;;;;;1.02;0.40;;;21.10;53.60;;;;;;5102089;28;20036;-77
2021/12/18 07:44:44;;;;;;;3.20;0.40;;;21.10;53.60;;;;;;5100899;28;20039;-83
2021/12/18 07:47:09;;;;;;;6.28;0.60;;;21.10;53.70;;;;;;5095047;28;20324;-73
2021/12/18 07:49:35;;;;;;;0.88;0.28;;;21.10;53.80;;;;;;5102492;28;20069;-73
2021/12/18 07:52:03;;;;;;;2.13;0.60;;;21.20;53.90;;;;;;5102028;28;20040;-74
2021/12/18 07:54:29;;;;;;;;;;;21.20;54.00;;;;;;5085792;28;20101;-73
2021/12/18 07:56:55;;;;;;;4.18;0.40;;;21.20;54.20;;;;;;5100115;28;19927;-74
2021/12/18 07:59:20;;;;;;;1.70;0.40;;;21.20;54.00;;;;;;5102486;28;20452;-73
2021/12/18 08:01:46;;;;;;;0.90;0.30;;;21.20;54.10;;;;;;5130110;27;20451;-78
2021/12/18 08:04:11;;;;;;;6.20;0.68;;;21.20;54.20;;;;;;5097292;28;20049;-74
2021/12/18 08:06:37;;;;;;;3.20;0.40;;;21.20;54.20;;;;;;5101089;28;20094;-73
2021/12/18 08:09:03;;;;;;;1.83;0.30;;;21.30;54.20;;;;;;5102676;28;20058;-75
2021/12/18 08:11:28;;;;;;;1.27;0.40;;;21.30;54.30;;;;;;5100567;28;20048;-74
2021/12/18 08:13:54;;;;;;;3.28;0.40;;;21.30;54.20;;;;;;5100805;28;20055;-75
2021/12/18 08:16:19;;;;;;;0.90;0.50;;;21.30;54.40;;;;;;5100833;28;20112;-79
2021/12/18 08:18:45;;;;;;;1.55;0.50;;;21.30;54.40;;;;;;5101803;27;20049;-75
2021/12/18 08:21:11;;;;;;;3.03;0.60;;;21.30;54.50;;;;;;5100551;28;20128;-74
2021/12/18 08:23:36;;;;;;;1.23;0.43;;;21.30;54.40;;;;;;5098221;28;20134;-76
2021/12/18 08:26:02;;;;;;;1.88;0.40;;;21.40;54.40;;;;;;5076059;28;20151;-77
2021/12/18 08:28:28;;;;;;;0.55;0.30;;;21.30;54.40;;;;;;5094012;28;20047;-74
2021/12/18 08:30:53;;;;;;;3.08;0.40;;;21.40;54.40;;;;;;5091674;28;20047;-75
2021/12/18 08:33:19;;;;;;;1.10;0.40;;;21.30;54.40;;;;;;5123235;27;20050;-77
2021/12/18 08:35:45;;;;;;;1.42;0.32;;;21.40;54.40;;;;;;5110723;27;20036;-76
2021/12/18 08:38:10;;;;;;;1.25;0.40;;;21.40;54.40;;;;;;5099852;28;20031;-75
2021/12/18 08:40:36;;;;;;;0.65;0.40;;;21.40;54.40;;;;;;5118707;27;20509;-78
2021/12/18 08:43:02;;;;;;;2.92;0.50;;;21.40;54.40;;;;;;5104304;28;20566;-78
2021/12/18 08:45:28;;;;;;;0.85;0.40;;;21.40;54.40;;;;;;5095719;28;20056;-76
2021/12/18 08:47:55;;;;;;;2.03;0.47;;;21.40;54.40;;;;;;5104568;28;20044;-73
2021/12/18 08:50:21;;;;;;;0.73;0.40;;;21.40;54.50;;;;;;5092967;28;20475;-74
2021/12/18 08:52:48;;;;;;;1.48;0.50;;;21.40;54.50;;;;;;5100861;28;20078;-75
2021/12/18 08:55:15;;;;;;;1.17;0.35;;;21.40;54.50;;;;;;5097088;28;20039;-73
2021/12/18 08:57:40;;;;;;;0.80;0.40;;;21.40;54.60;;;;;;5099079;28;20628;-75
2021/12/18 09:00:11;;;;;;;2.92;0.40;;;21.40;54.60;;;;;;5101875;28;20047;-76
2021/12/18 09:02:40;;;;;;;1.08;0.63;;;21.40;54.70;;;;;;5084450;28;20044;-77
2021/12/18 09:05:07;;;;;;;2.55;0.43;;;21.50;54.80;;;;;;5101402;28;20076;-75
2021/12/18 09:07:33;;;;;;;1.05;0.50;;;21.40;54.80;;;;;;5102068;28;20075;-75
2021/12/18 09:09:58;;;;;;;1.73;0.40;;;21.40;54.80;;;;;;5113595;28;20071;-77
2021/12/18 09:12:25;;;;;;;0.82;0.38;;;21.40;54.80;;;;;;5103554;28;20080;-77
2021/12/18 09:14:51;;;;;;;1.20;0.45;;;21.50;54.90;;;;;;5096902;28;21870;-74
2021/12/18 09:17:17;;;;;;;0.90;0.32;;;21.50;54.90;;;;;;5103570;28;20055;-74
2021/12/18 09:19:42;;;;;;;1.00;0.43;;;21.50;55.00;;;;;;5098688;28;20035;-76
2021/12/18 09:22:09;;;;;;;1.73;0.50;;;21.50;55.00;;;;;;5101775;28;20046;-77
2021/12/18 09:24:35;;;;;;;4.07;0.75;;;21.50;55.00;;;;;;5097817;28;20039;-75
2021/12/18 09:27:01;;;;;;;2.60;0.40;;;21.50;55.00;;;;;;5101439;28;20039;-74
2021/12/18 09:29:26;;;;;;;2.75;0.50;;;21.50;55.00;;;;;;5100308;28;20100;-75
2021/12/18 09:31:52;;;;;;;3.03;0.65;;;21.50;55.00;;;;;;5122889;27;20044;-76
2021/12/18 09:34:18;;;;;;;1.00;0.40;;;21.50;55.00;;;;;;5126228;27;20040;-76
2021/12/18 09:36:43;;;;;;;1.60;0.52;;;21.50;55.00;;;;;;5084324;28;20529;-74
2021/12/18 09:39:09;;;;;;;1.10;0.43;;;21.50;55.00;;;;;;5102675;28;20047;-78
2021/12/18 09:41:37;;;;;;;1.15;0.30;;;21.50;55.00;;;;;;5100758;28;20044;-76
2021/12/18 09:44:03;;;;;;;;;;;21.50;55.00;;;;;;5103742;28;20482;-76
2021/12/18 09:46:31;;;;;;;1.30;0.57;;;21.50;55.00;;;;;;5101890;28;19952;-76
2021/12/18 09:48:57;;;;;;;1.55;0.52;;;21.50;55.10;;;;;;5089740;28;20444;-82
2021/12/18 09:51:27;;;;;;;1.15;0.55;;;21.50;55.10;;;;;;5105872;28;20044;-83
2021/12/18 09:53:54;;;;;;;4.32;0.55;;;21.50;55.20;;;;;;5105586;28;20036;-74
2021/12/18 09:56:20;;;;;;;1.70;0.55;;;21.50;55.20;;;;;;5095442;28;20067;-78
2021/12/18 09:58:46;;;;;;;1.50;0.50;;;21.40;55.20;;;;;;5093555;28;20078;-74
2021/12/18 10:01:11;;;;;;;1.25;0.50;;;21.50;55.20;;;;;;5097276;28;20063;-74
2021/12/18 10:03:58;;;;;;;2.95;0.50;;;21.50;55.20;;;;;;5093455;27;20043;-75
2021/12/18 10:06:44;;;;;;;6.13;0.70;;;21.40;55.10;;;;;;5093499;28;20035;-77
2021/12/18 10:09:30;;;;;;;1.00;0.50;;;21.50;55.10;;;;;;5093658;28;21383;-77
2021/12/18 10:12:02;;;;;;;1.52;0.40;;;21.50;55.10;;;;;;5092582;28;20038;-75
2021/12/18 10:14:43;;;;;;;1.65;0.47;;;21.50;55.10;;;;;;5077593;28;20048;-77
2021/12/18 10:17:18;;;;;;;1.08;0.40;;;21.50;55.10;;;;;;5095473;28;20058;-77
2021/12/18 10:19:44;;;;;;;1.70;0.60;;;21.50;55.10;;;;;;5105974;27;20039;-73
2021/12/18 10:22:13;;;;;;;1.80;0.65;;;21.50;55.00;;;;;;5094968;27;20495;-73
2021/12/18 10:24:43;;;;;;;6.35;0.70;;;21.40;54.80;;;;;;5104185;28;20035;-72
2021/12/18 10:27:21;;;;;;;2.90;0.60;;;21.40;54.60;;;;;;5134772;27;20070;-74
2021/12/18 10:29:48;;;;;;;1.52;0.60;;;21.40;54.50;;;;;;5100103;28;20567;-73
2021/12/18 10:32:24;;;;;;;4.25;0.80;;;21.40;54.60;;;;;;5095589;28;20044;-73
2021/12/18 10:34:55;;;;;;;6.65;0.75;;;21.30;54.50;;;;;;5104358;28;20043;-73
2021/12/18 10:37:22;;;;;;;4.43;0.85;;;21.40;54.60;;;;;;5102042;28;20388;-74
2021/12/18 10:39:53;;;;;;;3.67;0.82;;;21.40;54.50;;;;;;5103115;27;20450;-74
2021/12/18 10:42:33;;;;;;;2.22;0.70;;;21.40;54.50;;;;;;5097571;28;20059;-74
2021/12/18 10:45:04;;;;;;;2.08;0.65;;;21.30;54.50;;;;;;5097994;28;20075;-73
2021/12/18 10:47:57;;;;;;;3.20;0.60;;;21.40;54.40;;;;;;5110868;27;20036;-78
2021/12/18 10:50:42;;;;;;;2.58;0.52;;;21.40;54.30;;;;;;5076504;28;20052;-70
2021/12/18 10:53:23;;;;;;;1.20;0.60;;;21.30;54.40;;;;;;5099179;28;20051;-74
2021/12/18 10:55:53;;;;;;;5.30;0.60;;;21.30;54.30;;;;;;5097342;28;20039;-75
2021/12/18 10:58:27;;;;;;;3.65;0.95;;;21.30;54.30;;;;;;5096257;28;20082;-74
2021/12/18 11:01:06;;;;;;;2.70;0.88;;;21.30;54.20;;;;;;5105134;28;20161;-76
2021/12/18 11:03:38;;;;;;;1.90;0.60;;;21.30;54.20;;;;;;5104032;28;20433;-76
2021/12/18 11:06:14;;;;;;;5.55;0.90;;;21.30;54.20;;;;;;5111486;27;20127;-79
2021/12/18 11:08:56;;;;;;;9.30;0.90;;;21.30;54.00;;;;;;5090957;28;20052;-80
2021/12/18 11:14:01;;;;;;;5.03;1.00;;;21.30;54.10;;;;;;5093873;28;20051;-74
2021/12/18 11:16:28;;;;;;;4.13;1.15;;;21.30;54.10;;;;;;5092957;28;20043;-75
2021/12/18 11:18:55;;;;;;;5.35;1.33;;;21.30;54.00;;;;;;5098697;28;20495;-76
2021/12/18 11:21:23;;;;;;;4.25;0.98;;;21.30;54.00;;;;;;5103277;28;20035;-72
2021/12/18 11:23:49;;;;;;;;;;;21.30;53.90;;;;;;5102392;28;20036;-77
2021/12/18 11:26:20;;;;;;;12.68;1.67;;;21.30;53.80;;;;;;5096793;28;20420;-76
2021/12/18 11:28:50;;;;;;;2.58;0.77;;;21.30;54.00;;;;;;5098625;28;20500;-74
2021/12/18 11:31:16;;;;;;;8.25;1.02;;;21.20;53.90;;;;;;5099073;28;20040;-75
2021/12/18 11:33:42;;;;;;;5.20;0.90;;;21.20;53.90;;;;;;5098216;28;20044;-75
2021/12/18 11:36:09;;;;;;;10.27;1.35;;;21.20;53.90;;;;;;5101676;28;20039;-78
2021/12/18 11:38:37;;;;;;;6.45;0.82;;;21.20;53.90;;;;;;5102155;28;20459;-77
2021/12/18 11:41:03;;;;;;;6.97;1.00;;;21.20;53.90;;;;;;5098367;28;20475;-74
2021/12/18 11:43:46;;;;;;;4.55;1.00;;;21.20;54.00;;;;;;5100922;28;20081;-71
2021/12/18 11:46:30;;;;;;;5.47;1.00;;;21.20;53.90;;;;;;5068541;28;20130;-78
2021/12/18 11:49:09;;;;;;;4.45;1.05;;;21.20;53.90;;;;;;5083538;28;20081;-76
2021/12/18 11:51:36;;;;;;;4.72;0.80;;;21.20;53.90;;;;;;5094580;28;20031;-73
2021/12/18 11:54:06;;;;;;;8.30;1.10;;;21.20;53.90;;;;;;5096823;28;20047;-74
2021/12/18 11:56:49;;;;;;;4.40;0.90;;;21.20;53.90;;;;;;5101273;28;20031;-77
2021/12/18 11:59:41;;;;;;;9.88;1.30;;;21.20;53.80;;;;;;5094229;28;20058;-77
2021/12/18 12:02:09;;;;;;;2.67;0.88;;;21.20;53.90;;;;;;5099876;28;20043;-73
2021/12/18 12:04:58;;;;;;;3.17;0.90;;;21.20;53.80;;;;;;5054756;28;20036;-76
2021/12/18 12:07:26;;;;;;;6.47;0.90;;;21.20;53.60;;;;;;5093259;28;20464;-74
2021/12/18 12:10:12;;;;;;;3.53;0.90;;;21.20;53.60;;;;;;5086137;28;20395;-71
2021/12/18 12:12:53;;;;;;;3.38;0.93;;;21.20;53.40;;;;;;5101196;28;20040;-75
2021/12/18 12:15:24;;;;;;;4.20;0.80;;;21.10;53.30;;;;;;5092859;28;20123;-78
2021/12/18 12:17:54;;;;;;;4.38;0.80;;;21.10;53.40;;;;;;5121084;27;20051;-79
2021/12/18 12:20:41;;;;;;;7.55;1.20;;;21.10;53.30;;;;;;5095034;28;20044;-72
2021/12/18 12:23:09;;;;;;;6.38;1.10;;;21.10;53.20;;;;;;5093302;28;20040;-77
2021/12/18 12:25:49;;;;;;;3.53;1.00;;;21.10;53.40;;;;;;5090402;28;20086;-78
2021/12/18 12:28:22;;;;;;;6.45;1.00;;;21.10;53.60;;;;;;5123105;27;20854;-78
2021/12/18 12:30:52;;;;;;;9.30;0.98;;;21.10;53.60;;;;;;5089196;28;20550;-75
2021/12/18 12:33:30;;;;;;;3.92;0.90;;;21.20;53.60;;;;;;5120389;27;20121;-71
2021/12/18 12:36:10;;;;;;;7.60;1.25;;;21.20;53.70;;;;;;5112818;27;20122;-77
2021/12/18 12:38:41;;;;;;;6.35;1.13;;;21.20;53.80;;;;;;5098339;28;20052;-81
2021/12/18 12:41:32;;;;;;;8.38;1.20;;;21.20;53.80;;;;;;5104129;28;20047;-76
2021/12/18 12:44:02;;;;;;;5.97;0.98;;;21.20;53.90;;;;;;5083530;28;20036;-77
2021/12/18 12:46:29;;;;;;;4.82;0.90;;;21.20;53.90;;;;;;5101080;28;20150;-79
2021/12/18 12:49:01;;;;;;;3.22;1.02;;;21.20;53.90;;;;;;5103373;28;20027;-76
2021/12/18 12:51:59;;;;;;;4.20;1.00;;;21.20;53.90;;;;;;5127105;27;20391;-76
2021/12/18 12:54:49;;;;;;;3.28;0.85;;;21.30;54.00;;;;;;5128318;27;20048;-76
2021/12/18 12:57:21;;;;;;;3.53;0.95;;;21.30;54.00;;;;;;5119753;27;20056;-77
2021/12/18 12:59:47;;;;;;;7.32;0.93;;;21.20;53.90;;;;;;5137260;27;20094;-72
2021/12/18 13:02:14;;;;;;;4.43;1.00;;;21.30;54.10;;;;;;5103918;28;20693;-76
2021/12/18 13:04:40;;;;;;;4.15;0.80;;;21.20;54.00;;;;;;5105062;28;20074;-74
2021/12/18 13:07:06;;;;;;;6.05;1.00;;;21.30;54.20;;;;;;5104851;28;20067;-75
2021/12/18 13:09:43;;;;;;;4.03;1.00;;;21.30;54.10;;;;;;5104741;28;20344;-75
2021/12/18 13:12:09;;;;;;;2.50;1.00;;;21.30;54.10;;;;;;5107255;28;20090;-74
2021/12/18 13:14:37;;;;;;;3.10;1.10;;;21.30;54.20;;;;;;5109538;28;20043;-75
2021/12/18 13:17:20;;;;;;;3.30;1.27;;;21.30;54.20;;;;;;5107656;28;20051;-77
2021/12/18 13:20:04;;;;;;;4.68;1.25;;;21.30;54.20;;;;;;5088192;28;20050;-76
2021/12/18 13:22:33;;;;;;;3.42;1.23;;;21.30;54.30;;;;;;5106542;28;20036;-76
2021/12/18 13:25:04;;;;;;;6.78;1.50;;;21.30;54.30;;;;;;5106971;28;20061;-79
2021/12/18 13:27:31;;;;;;;2.60;0.85;;;21.30;54.30;;;;;;5103380;27;20066;-78
2021/12/18 13:30:12;;;;;;;3.92;0.93;;;21.30;54.20;;;;;;5097758;28;20048;-78
2021/12/18 13:32:50;;;;;;;2.22;1.10;;;21.30;54.20;;;;;;5104160;27;20043;-76
2021/12/18 13:35:17;;;;;;;9.15;1.13;;;21.30;54.20;;;;;;5102490;28;20486;-72